createdAt,value
2019-01-04T00:04:32.766Z,102988.44
2019-01-04T00:07:04.989Z,102979.66
2019-01-04T00:09:35.518Z,102983.19
2019-01-04T00:14:47.863Z,102980.56
2019-01-04T00:17:31.141Z,102980.55
2019-01-04T00:20:20.510Z,102980.56
2019-01-04T00:22:52.729Z,102979.24
2019-01-04T00:25:23.386Z,102973.53
2019-01-04T00:27:53.600Z,102970.00
2019-01-04T00:30:24.176Z,102963.87
2019-01-04T00:32:54.682Z,102961.67
2019-01-04T00:35:25.054Z,102963.42
2019-01-04T00:37:55.330Z,102958.58
2019-01-04T00:40:25.677Z,102954.20
2019-01-04T00:42:56.021Z,102939.67
2019-01-04T00:45:28.057Z,102936.58
2019-01-04T00:48:17.515Z,102933.95
2019-01-04T00:50:48.174Z,102938.31
2019-01-04T00:53:18.462Z,102940.06
2019-01-04T00:56:27.156Z,102939.18
2019-01-04T00:59:35.886Z,102940.05
2019-01-04T01:02:44.681Z,102945.34
2019-01-04T01:06:07.637Z,102943.57
2019-01-04T01:09:17.349Z,102942.69
2019-01-04T01:12:25.800Z,102945.32
2019-01-04T01:15:37.721Z,102945.27
2019-01-04T01:18:31.130Z,102934.70
2019-01-04T01:24:51.961Z,102935.55
2019-01-04T01:28:00.416Z,102935.09
2019-01-04T01:31:08.841Z,102937.24
2019-01-04T01:34:17.474Z,102949.55
2019-01-04T01:37:27.780Z,102944.66
2019-01-04T01:40:36.256Z,102940.25
2019-01-04T01:43:44.743Z,102927.95
2019-01-04T01:46:42.490Z,102922.16
2019-01-04T01:49:51.056Z,102913.80
2019-01-04T01:52:25.888Z,102914.23
2019-01-04T01:54:56.236Z,102911.59
2019-01-04T01:57:26.902Z,102921.70
2019-01-04T02:00:09.110Z,102917.70
2019-01-04T02:02:39.339Z,102918.14
2019-01-04T02:05:11.492Z,102916.80
2019-01-04T02:07:41.794Z,102911.53
2019-01-04T02:13:13.093Z,102893.06
2019-01-04T02:16:02.502Z,102885.99
2019-01-04T02:18:32.709Z,102889.94
2019-01-04T02:21:02.921Z,102896.98
2019-01-04T02:23:33.253Z,102887.74
2019-01-04T02:26:03.611Z,102875.88
2019-01-04T02:28:33.825Z,102878.95
2019-01-04T02:31:04.053Z,102871.02
2019-01-04T02:33:34.446Z,102866.61
2019-01-04T02:36:06.697Z,102867.48
2019-01-04T02:38:37.043Z,102859.50
2019-01-04T02:44:15.804Z,102836.61
2019-01-04T02:46:46.020Z,102835.73
2019-01-04T02:49:16.275Z,102833.97
2019-01-04T02:51:48.558Z,102837.47
2019-01-04T02:54:31.917Z,102831.29
2019-01-04T02:57:02.217Z,102834.75
2019-01-04T02:59:32.448Z,102839.59
2019-01-04T03:02:14.856Z,102838.29
2019-01-04T03:04:45.051Z,102842.64
2019-01-04T03:07:15.262Z,102826.75
2019-01-04T03:09:45.689Z,102823.25
2019-01-04T03:12:16.317Z,102815.81
2019-01-04T03:14:46.528Z,102818.90
2019-01-04T03:17:16.772Z,102812.25
2019-01-04T03:20:05.917Z,102799.00
2019-01-04T03:22:36.314Z,102799.00
2019-01-04T03:25:06.567Z,102794.57
2019-01-04T03:27:36.800Z,102785.74
2019-01-04T03:30:13.086Z,102777.34
2019-01-04T03:32:43.634Z,102775.09
2019-01-04T03:35:13.809Z,102766.27
2019-01-04T03:37:56.037Z,102767.16
2019-01-04T03:40:26.332Z,102763.61
2019-01-04T03:42:56.563Z,102776.31
2019-01-04T03:45:26.882Z,102774.59
2019-01-04T03:47:57.136Z,102750.39
2019-01-04T03:50:27.744Z,102752.61
2019-01-04T03:52:58.052Z,102748.64
2019-01-04T03:55:30.262Z,102751.27
2019-01-04T03:58:00.691Z,102737.13
2019-01-04T04:00:37.268Z,102736.62
2019-01-04T04:03:07.830Z,102728.61
2019-01-04T04:05:38.071Z,102734.31
2019-01-04T04:08:08.503Z,102731.23
2019-01-04T04:10:39.070Z,102712.74
2019-01-04T04:13:10.895Z,102704.87
2019-01-04T04:15:41.380Z,102704.05
2019-01-04T04:18:11.573Z,102708.89
2019-01-04T04:23:31.292Z,102695.16
2019-01-04T04:26:01.835Z,102692.02
2019-01-04T04:28:32.084Z,102674.00
2019-01-04T04:31:21.489Z,102683.73
2019-01-04T04:33:51.679Z,102677.12
2019-01-04T04:36:21.904Z,102665.67
2019-01-04T04:38:52.377Z,102663.45
2019-01-04T04:41:22.907Z,102664.75
2019-01-04T04:44:04.699Z,102661.68
2019-01-04T04:46:34.903Z,102664.37
2019-01-04T04:49:05.124Z,102665.31
2019-01-04T04:54:37.148Z,102669.98
2019-01-04T05:00:09.241Z,102678.33
2019-01-04T05:02:39.508Z,102673.47
2019-01-04T05:08:10.278Z,102666.38
2019-01-04T05:10:41.519Z,102660.73
2019-01-04T05:15:54.648Z,102645.81
2019-01-04T05:18:24.823Z,102633.84
2019-01-04T05:20:55.307Z,102628.56
2019-01-04T05:23:25.631Z,102621.07
2019-01-04T05:25:55.949Z,102625.46
2019-01-04T05:28:26.169Z,102623.27
2019-01-04T05:31:15.470Z,102618.38
2019-01-04T05:33:45.679Z,102609.10
2019-01-04T05:36:21.656Z,102605.13
2019-01-04T05:39:11.072Z,102608.20
2019-01-04T05:44:23.324Z,102601.62
2019-01-04T05:46:55.247Z,102602.46
2019-01-04T05:49:26.112Z,102593.18
2019-01-04T05:52:15.357Z,102581.26
2019-01-04T05:54:45.583Z,102589.62
2019-01-04T05:57:28.028Z,102578.11
2019-01-04T05:59:58.771Z,102570.06
2019-01-04T06:02:29.041Z,102554.05
2019-01-04T06:05:20.183Z,102555.34
2019-01-04T06:08:09.493Z,102557.56
2019-01-04T06:10:39.723Z,102553.66
2019-01-04T06:13:09.926Z,102563.42
2019-01-04T06:15:59.166Z,102562.13
2019-01-04T06:18:29.496Z,102559.94
2019-01-04T06:21:18.827Z,102559.98
2019-01-04T06:23:49.039Z,102554.70
2019-01-04T06:26:38.379Z,102558.67
2019-01-04T06:29:08.625Z,102549.89
2019-01-04T06:31:38.822Z,102559.15
2019-01-04T06:34:09.041Z,102546.70
2019-01-04T06:36:41.287Z,102546.20
2019-01-04T06:39:30.550Z,102546.09
2019-01-04T06:42:00.718Z,102546.09
2019-01-04T06:44:42.675Z,102551.83
2019-01-04T06:47:34.309Z,102563.64
2019-01-04T06:50:04.704Z,102551.74
2019-01-04T06:52:35.169Z,102554.47
2019-01-04T06:56:10.272Z,102544.83
2019-01-04T06:58:40.662Z,102547.47
2019-01-04T07:01:11.271Z,102541.78
2019-01-04T07:04:02.175Z,102537.64
2019-01-04T07:06:32.511Z,102530.03
2019-01-04T07:09:21.825Z,102530.91
2019-01-04T07:11:52.032Z,102523.84
2019-01-04T07:14:22.308Z,102519.03
2019-01-04T07:19:35.081Z,102519.45
2019-01-04T07:22:05.330Z,102515.48
2019-01-04T07:24:37.244Z,102518.00
2019-01-04T07:27:07.499Z,102523.20
2019-01-04T07:29:43.375Z,102524.59
2019-01-04T07:32:13.749Z,102524.95
2019-01-04T07:34:43.934Z,102535.50
2019-01-04T07:37:14.168Z,102529.81
2019-01-04T07:39:46.006Z,102526.23
2019-01-04T07:42:16.214Z,102522.66
2019-01-04T07:44:46.502Z,102510.45
2019-01-04T07:47:16.839Z,102521.48
2019-01-04T07:49:48.737Z,102515.36
2019-01-04T07:52:19.009Z,102509.23
2019-01-04T07:54:49.390Z,102504.74
2019-01-04T07:57:19.661Z,102504.67
2019-01-04T07:59:50.480Z,102504.64
2019-01-04T08:02:42.453Z,102503.29
2019-01-04T08:05:16.465Z,102502.91
2019-01-04T08:07:46.780Z,102496.80
2019-01-04T08:10:36.522Z,102495.03
2019-01-04T08:13:07.380Z,102491.61
2019-01-04T08:15:37.604Z,102494.77
2019-01-04T08:18:07.950Z,102484.16
2019-01-04T08:20:38.310Z,102489.34
2019-01-04T08:23:08.511Z,102500.84
2019-01-04T08:28:22.910Z,102499.19
2019-01-04T08:30:53.136Z,102492.13
2019-01-04T08:33:23.428Z,102503.19
2019-01-04T08:35:53.675Z,102497.50
2019-01-04T08:38:23.980Z,102487.86
2019-01-04T08:40:54.931Z,102476.38
2019-01-04T08:43:25.177Z,102467.89
2019-01-04T08:45:55.517Z,102455.56
2019-01-04T08:48:25.726Z,102452.14
2019-01-04T08:51:17.717Z,102444.23
2019-01-04T08:54:08.180Z,102446.88
2019-01-04T08:56:59.251Z,102431.88
2019-01-04T08:59:29.668Z,102447.17
2019-01-04T09:02:00.580Z,102450.91
2019-01-04T09:04:33.040Z,102445.16
2019-01-04T09:07:15.061Z,102432.84
2019-01-04T09:09:45.375Z,102425.36
2019-01-04T09:12:15.656Z,102423.55
2019-01-04T09:17:33.596Z,102393.42
2019-01-04T09:20:03.833Z,102389.00
2019-01-04T09:22:45.933Z,102375.80
2019-01-04T09:25:16.233Z,102368.63
2019-01-04T09:27:48.052Z,102361.59
2019-01-04T09:30:19.951Z,102366.02
2019-01-04T09:33:02.245Z,102363.81
2019-01-04T09:35:32.514Z,102357.20
2019-01-04T09:38:02.877Z,102372.21
2019-01-04T09:40:33.215Z,102372.52
2019-01-04T09:43:03.585Z,102366.63
2019-01-04T09:45:33.815Z,102374.00
2019-01-04T09:48:16.088Z,102370.94
2019-01-04T09:51:05.731Z,102364.69
2019-01-04T09:56:18.468Z,102363.48
2019-01-04T09:59:00.487Z,102346.35
2019-01-04T10:01:31.634Z,102340.27
2019-01-04T10:04:02.311Z,102339.81
2019-01-04T10:06:51.671Z,102321.32
2019-01-04T10:09:33.669Z,102317.73
2019-01-04T10:12:04.371Z,102309.38
2019-01-04T10:17:35.268Z,102321.36
2019-01-04T10:20:06.661Z,102302.88
2019-01-04T10:22:38.497Z,102293.61
2019-01-04T10:25:09.020Z,102298.03
2019-01-04T10:27:41.041Z,102311.30
2019-01-04T10:33:25.257Z,102294.52
2019-01-04T10:36:14.573Z,102289.06
2019-01-04T10:38:45.056Z,102297.72
2019-01-04T10:44:16.214Z,102269.92
2019-01-04T10:46:48.191Z,102265.95
2019-01-04T10:49:18.430Z,102262.39
2019-01-04T10:51:48.799Z,102262.27
2019-01-04T10:54:19.498Z,102255.11
2019-01-04T10:56:49.906Z,102259.45
2019-01-04T10:59:22.254Z,102257.17
2019-01-04T11:01:52.604Z,102255.67
2019-01-04T11:04:23.327Z,102244.95
2019-01-04T11:06:53.666Z,102233.03
2019-01-04T11:09:24.851Z,102245.23
2019-01-04T11:12:14.226Z,102238.61
2019-01-04T11:14:57.058Z,102254.34
2019-01-04T11:17:25.862Z,102231.17
2019-01-04T11:20:07.786Z,102234.09
2019-01-04T11:22:58.605Z,102235.74
2019-01-04T11:26:07.039Z,102232.55
2019-01-04T11:29:04.545Z,102228.97
2019-01-04T11:32:12.945Z,102212.92
2019-01-04T11:35:21.852Z,102210.13
2019-01-04T11:38:16.176Z,102208.09
2019-01-04T11:41:10.963Z,102206.41
2019-01-04T11:44:09.780Z,102193.15
2019-01-04T11:47:24.836Z,102200.80
2019-01-04T11:50:33.269Z,102197.00
2019-01-04T11:53:11.874Z,102205.40
2019-01-04T11:55:42.151Z,102209.48
2019-01-04T11:58:12.350Z,102206.92
2019-01-04T12:00:42.798Z,102194.42
2019-01-04T12:03:13.036Z,102190.73
2019-01-04T12:05:43.301Z,102177.38
2019-01-04T12:08:32.674Z,102179.88
2019-01-04T12:11:03.058Z,102175.20
2019-01-04T12:16:27.570Z,102158.37
2019-01-04T12:18:56.269Z,102175.11
2019-01-04T12:21:45.570Z,102187.61
2019-01-04T12:24:15.916Z,102185.06
2019-01-04T12:26:46.146Z,102190.67
2019-01-04T12:29:16.459Z,102203.77
2019-01-04T12:31:46.761Z,102191.14
2019-01-04T12:34:17.429Z,102192.72
2019-01-04T12:36:47.929Z,102185.73
2019-01-04T12:39:18.459Z,102182.16
2019-01-04T12:41:48.709Z,102187.83
2019-01-04T12:44:38.016Z,102188.16
2019-01-04T12:47:10.111Z,102176.62
2019-01-04T12:49:40.342Z,102180.19
2019-01-04T12:52:10.749Z,102180.14
2019-01-04T12:54:41.291Z,102188.00
2019-01-04T12:57:11.531Z,102192.37
2019-01-04T12:59:43.534Z,102193.69
2019-01-04T13:02:13.758Z,102183.23
2019-01-04T13:04:44.066Z,102176.61
2019-01-04T13:07:14.463Z,102161.36
2019-01-04T13:10:04.003Z,102154.85
2019-01-04T13:12:35.183Z,102142.44
2019-01-04T13:15:05.435Z,102151.84
2019-01-04T13:17:36.131Z,102150.73
2019-01-04T13:20:08.134Z,102153.27
2019-01-04T13:22:57.759Z,102151.19
2019-01-04T13:25:28.081Z,102149.52
2019-01-04T13:27:58.428Z,102155.47
2019-01-04T13:30:28.955Z,102156.66
2019-01-04T13:33:01.425Z,102142.81
2019-01-04T13:35:31.634Z,102146.88
2019-01-04T13:38:03.664Z,102142.55
2019-01-04T13:40:33.924Z,102143.88
2019-01-04T13:43:04.158Z,102151.03
2019-01-04T13:45:34.473Z,102142.20
2019-01-04T13:50:46.543Z,102147.50
2019-01-04T13:53:16.875Z,102149.17
2019-01-04T13:55:47.139Z,102153.67
2019-01-04T13:58:17.414Z,102152.00
2019-01-04T14:00:47.731Z,102154.55
2019-01-04T14:03:18.078Z,102141.27
2019-01-04T14:05:48.348Z,102145.19
2019-01-04T14:08:18.908Z,102127.92
2019-01-04T14:10:49.165Z,102132.52
2019-01-04T14:13:19.555Z,102131.91
2019-01-04T14:15:51.602Z,102131.28
2019-01-04T14:18:21.909Z,102133.65
2019-01-04T14:21:03.142Z,102129.03
2019-01-04T14:23:33.785Z,102130.27
2019-01-04T14:26:04.271Z,102127.09
2019-01-04T14:28:36.175Z,102134.20
2019-01-04T14:31:06.495Z,102137.41
2019-01-04T14:33:36.982Z,102139.66
2019-01-04T14:36:07.341Z,102133.33
2019-01-04T14:38:37.658Z,102136.28
2019-01-04T14:41:09.670Z,102125.38
2019-01-04T14:43:40.145Z,102133.30
2019-01-04T14:46:10.533Z,102119.81
2019-01-04T14:48:41.030Z,102124.86
2019-01-04T14:51:30.263Z,102114.97
2019-01-04T14:54:00.858Z,102119.08
2019-01-04T14:56:42.392Z,102112.55
2019-01-04T14:59:31.601Z,102114.87
2019-01-04T15:04:44.072Z,102120.29
2019-01-04T15:07:14.424Z,102128.97
2019-01-04T15:09:44.852Z,102132.31
2019-01-04T15:14:59.482Z,102133.84
2019-01-04T15:17:48.985Z,102130.59
2019-01-04T15:20:58.790Z,102136.84
2019-01-04T15:23:29.142Z,102133.50
2019-01-04T15:25:59.433Z,102129.72
2019-01-04T15:28:31.644Z,102132.49
2019-01-04T15:31:02.048Z,102117.81
2019-01-04T15:33:32.388Z,102119.95
2019-01-04T15:36:03.105Z,102114.05
2019-01-04T15:38:52.485Z,102119.22
2019-01-04T15:41:24.462Z,102115.97
2019-01-04T15:43:54.764Z,102112.70
2019-01-04T15:46:25.126Z,102111.50
2019-01-04T15:48:55.783Z,102108.78
2019-01-04T15:51:26.056Z,102109.92
2019-01-04T15:53:56.541Z,102105.73
2019-01-04T15:56:26.921Z,102114.13
2019-01-04T15:58:57.227Z,102106.27
2019-01-04T16:01:29.349Z,102104.81
2019-01-04T16:03:59.766Z,102108.06
2019-01-04T16:06:31.735Z,102104.27
2019-01-04T16:09:02.073Z,102110.79
2019-01-04T16:11:32.690Z,102110.57
2019-01-04T16:14:03.092Z,102111.53
2019-01-04T16:16:33.663Z,102098.23
2019-01-04T16:19:03.972Z,102092.88
2019-01-04T16:21:34.446Z,102100.86
2019-01-04T16:24:04.855Z,102093.34
2019-01-04T16:26:36.699Z,102092.64
2019-01-04T16:29:08.662Z,102091.83
2019-01-04T16:31:58.176Z,102095.51
2019-01-04T16:34:40.152Z,102089.38
2019-01-04T16:37:22.217Z,102097.70
2019-01-04T16:39:52.580Z,102092.36
2019-01-04T16:42:22.969Z,102097.36
2019-01-04T16:44:53.257Z,102098.41
2019-01-04T16:47:23.805Z,102085.70
2019-01-04T16:49:54.084Z,102091.70
2019-01-04T16:52:25.916Z,102089.30
2019-01-04T16:54:57.802Z,102094.03
2019-01-04T16:57:29.669Z,102096.75
2019-01-04T17:00:01.986Z,102100.00
2019-01-04T17:02:32.210Z,102093.44
2019-01-04T17:08:03.175Z,102097.03
2019-01-04T17:10:33.555Z,102101.69
2019-01-04T17:13:24.534Z,102106.45
2019-01-04T17:15:54.804Z,102109.64
2019-01-04T17:18:25.325Z,102102.13
2019-01-04T17:20:55.556Z,102109.73
2019-01-04T17:23:44.757Z,102106.27
2019-01-04T17:26:15.050Z,102105.86
2019-01-04T17:29:04.237Z,102106.51
2019-01-04T17:31:36.443Z,102104.66
2019-01-04T17:34:08.361Z,102097.77
2019-01-04T17:36:40.707Z,102092.36
2019-01-04T17:39:12.216Z,102091.52
2019-01-04T17:41:42.566Z,102091.95
2019-01-04T17:44:13.328Z,102087.66
2019-01-04T17:46:43.560Z,102086.45
2019-01-04T17:49:13.848Z,102085.52
2019-01-04T17:51:44.171Z,102081.94
2019-01-04T17:54:14.465Z,102082.27
2019-01-04T17:56:45.879Z,102084.88
2019-01-04T17:59:17.396Z,102078.75
2019-01-04T18:01:47.664Z,102079.16
2019-01-04T18:04:18.359Z,102070.43
2019-01-04T18:06:48.619Z,102067.03
2019-01-04T18:09:18.978Z,102060.47
2019-01-04T18:11:49.442Z,102071.35
2019-01-04T18:14:20.811Z,102056.20
2019-01-04T18:16:51.054Z,102048.70
2019-01-04T18:19:21.398Z,102051.70
2019-01-04T18:21:51.658Z,102049.63
2019-01-04T18:24:22.024Z,102053.95
2019-01-04T18:26:52.331Z,102056.20
2019-01-04T18:29:22.879Z,102047.30
2019-01-04T18:31:54.270Z,102040.53
2019-01-04T18:34:24.972Z,102036.86
2019-01-04T18:36:55.372Z,102041.38
2019-01-04T18:39:25.800Z,102033.55
2019-01-04T18:41:56.440Z,102033.48
2019-01-04T18:44:28.103Z,102021.25
2019-01-04T18:46:58.617Z,102021.25
2019-01-04T18:49:28.921Z,102018.71
2019-01-04T18:51:59.381Z,102028.88
2019-01-04T18:54:30.193Z,102016.39
2019-01-04T18:57:03.128Z,102015.27
2019-01-04T18:59:34.169Z,102015.64
2019-01-04T19:02:04.833Z,102009.52
2019-01-04T19:04:42.603Z,102011.26
2019-01-04T19:07:13.987Z,101997.56
2019-01-04T19:09:44.799Z,102000.65
2019-01-04T19:12:16.206Z,101996.66
2019-01-04T19:14:46.845Z,101985.41
2019-01-04T19:17:19.240Z,101994.72
2019-01-04T19:19:50.368Z,101987.95
2019-01-04T19:22:21.951Z,101975.58
2019-01-04T19:24:53.349Z,101961.36
2019-01-04T19:27:26.286Z,101968.47
2019-01-04T19:29:56.810Z,101955.18
2019-01-04T19:32:27.302Z,101946.61
2019-01-04T19:34:57.938Z,101944.38
2019-01-04T19:37:28.482Z,101945.18
2019-01-04T19:39:59.200Z,101940.73
2019-01-04T19:42:29.527Z,101947.31
2019-01-04T19:45:00.194Z,101939.66
2019-01-04T19:47:30.509Z,101932.95
2019-01-04T19:50:07.478Z,101930.12
2019-01-04T19:52:38.080Z,101931.06
2019-01-04T19:55:08.357Z,101923.94
2019-01-04T19:57:38.744Z,101921.62
2019-01-04T20:00:10.345Z,101910.28
2019-01-04T20:02:40.680Z,101918.26
2019-01-04T20:05:22.423Z,101917.03
2019-01-04T20:08:41.846Z,101917.56
2019-01-04T20:12:08.931Z,101916.89
2019-01-04T20:15:45.760Z,101891.73
2019-01-04T20:18:42.493Z,101906.22
2019-01-04T20:21:49.165Z,101906.33
2019-01-04T20:24:38.533Z,101894.95
2019-01-04T20:27:37.015Z,101897.28
2019-01-04T20:30:36.104Z,101896.88
2019-01-04T20:33:34.940Z,101908.91
2019-01-04T20:36:30.079Z,101889.00
2019-01-04T20:39:34.609Z,101897.38
2019-01-04T20:42:32.918Z,101896.42
2019-01-04T20:45:34.342Z,101880.14
2019-01-04T20:48:26.396Z,101874.35
2019-01-04T20:51:21.728Z,101880.87
2019-01-04T20:54:29.185Z,101861.92
2019-01-04T20:57:30.433Z,101866.38
2019-01-04T21:00:22.791Z,101869.59
2019-01-04T21:03:13.278Z,101873.45
2019-01-04T21:06:01.493Z,101870.80
2019-01-04T21:08:53.525Z,101868.04
2019-01-04T21:11:49.215Z,101867.91
2019-01-04T21:14:37.252Z,101862.26
2019-01-04T21:17:32.284Z,101865.25
2019-01-04T21:20:27.420Z,101863.98
2019-01-04T21:23:28.609Z,101867.37
2019-01-04T21:26:12.769Z,101853.84
2019-01-04T21:29:03.529Z,101859.58
2019-01-04T21:31:51.337Z,101867.03
2019-01-04T21:34:39.254Z,101850.67
2019-01-04T21:37:26.813Z,101850.81
2019-01-04T21:40:11.132Z,101843.70
2019-01-04T21:42:59.092Z,101847.08
2019-01-04T21:45:46.825Z,101845.82
2019-01-04T21:48:42.476Z,101851.27
2019-01-04T21:51:30.557Z,101847.08
2019-01-04T21:54:25.641Z,101839.97
2019-01-04T21:57:14.864Z,101835.52
2019-01-04T22:00:16.756Z,101824.94
2019-01-04T22:03:21.231Z,101814.70
2019-01-04T22:06:09.005Z,101813.30
2019-01-04T22:08:56.513Z,101805.22
2019-01-04T22:11:55.064Z,101800.41
2019-01-04T22:14:43.304Z,101792.83
2019-01-04T22:17:41.802Z,101795.09
2019-01-04T22:20:29.535Z,101786.64
2019-01-04T22:23:18.064Z,101783.41
2019-01-04T22:26:09.853Z,101780.67
2019-01-04T22:28:58.136Z,101780.20
2019-01-04T22:31:41.938Z,101773.30
2019-01-04T22:34:34.869Z,101765.20
2019-01-04T22:37:24.204Z,101766.72
2019-01-04T22:40:31.330Z,101759.59
2019-01-04T22:43:18.837Z,101761.28
2019-01-04T22:46:07.689Z,101761.22
2019-01-04T22:48:55.330Z,101762.77
2019-01-04T22:51:43.441Z,101770.03
2019-01-04T22:54:38.904Z,101756.66
2019-01-04T22:57:28.275Z,101758.53
2019-01-04T23:00:29.787Z,101752.74
2019-01-04T23:03:34.337Z,101753.34
2019-01-04T23:06:38.532Z,101738.06
2019-01-04T23:09:26.386Z,101736.05
2019-01-04T23:12:24.425Z,101736.56
2019-01-04T23:15:12.090Z,101737.52
2019-01-04T23:18:13.171Z,101743.23
2019-01-04T23:21:08.566Z,101735.87
2019-01-04T23:24:17.199Z,101743.92
2019-01-04T23:27:19.178Z,101736.73
2019-01-04T23:30:08.904Z,101733.27
2019-01-04T23:33:04.392Z,101730.21
2019-01-04T23:35:53.135Z,101731.79
2019-01-04T23:38:35.614Z,101735.52
2019-01-04T23:41:31.048Z,101730.31
2019-01-04T23:44:20.312Z,101724.13
2019-01-04T23:47:07.916Z,101718.63
2019-01-04T23:49:53.812Z,101708.37
2019-01-04T23:52:53.584Z,101701.33
2019-01-04T23:55:41.420Z,101704.93
2019-01-04T23:58:36.254Z,101701.78
